Time;durP1;ratioP1;P1;durP2;ratioP2;P2;SDS_P1;SDS_P2;PMS_P1;PMS_P2;Temp;Humidity;BMP_temperature;BMP_pressure;BME280_temperature;BME280_humidity;BME280_pressure;Samples;Min_cycle;Max_cycle;Signal;HPM_P1;HPM_P2
2022/05/13 00:01:05;;;;;;;6.95;3.47;;;11.60;99.90;;;;;;5014392;28;20045;-71
2022/05/13 00:03:33;;;;;;;6.30;3.30;;;11.60;99.90;;;;;;5014019;28;20087;-72
2022/05/13 00:06:01;;;;;;;6.25;3.50;;;11.60;99.90;;;;;;5013674;28;20093;-72
2022/05/13 00:08:28;;;;;;;8.38;4.15;;;11.60;99.90;;;;;;5032249;28;20045;-72
2022/05/13 00:10:56;;;;;;;8.63;3.40;;;11.60;99.90;;;;;;5034146;28;20053;-72
2022/05/13 00:13:23;;;;;;;11.40;3.83;;;11.70;99.90;;;;;;5036034;28;20443;-72
2022/05/13 00:15:50;;;;;;;9.00;3.53;;;11.70;99.90;;;;;;5018211;28;20084;-72
2022/05/13 00:18:18;;;;;;;8.05;3.60;;;11.70;99.90;;;;;;5017344;28;20045;-72
2022/05/13 00:20:45;;;;;;;9.32;3.70;;;11.70;99.90;;;;;;5017770;28;20046;-72
2022/05/13 00:23:13;;;;;;;7.03;3.92;;;11.70;99.90;;;;;;5017465;28;20049;-72
2022/05/13 00:25:41;;;;;;;8.73;3.65;;;11.80;99.90;;;;;;5017305;28;20064;-72
2022/05/13 00:28:09;;;;;;;7.88;4.03;;;11.80;99.90;;;;;;4982734;28;1046154;-72
2022/05/13 00:30:39;;;;;;;11.90;4.55;;;11.80;99.90;;;;;;5018368;28;20059;-72
2022/05/13 00:33:06;;;;;;;9.80;4.40;;;11.80;99.90;;;;;;5010057;28;20085;-72
2022/05/13 00:35:33;;;;;;;12.57;4.88;;;11.80;99.90;;;;;;5017108;28;20054;-72
2022/05/13 00:38:00;;;;;;;13.40;5.20;;;11.80;99.90;;;;;;5032423;28;20054;-72
2022/05/13 00:40:29;;;;;;;10.35;4.38;;;11.80;99.90;;;;;;4998945;28;20061;-73
2022/05/13 00:43:00;;;;;;;9.55;4.30;;;11.80;99.90;;;;;;4999341;28;20375;-72
2022/05/13 00:45:26;;;;;;;;;;;11.90;99.90;;;;;;4999614;28;20089;-72
2022/05/13 00:47:53;;;;;;;9.70;4.05;;;11.90;99.90;;;;;;5007904;28;19975;-71
2022/05/13 00:50:21;;;;;;;12.65;3.53;;;11.90;99.90;;;;;;5019294;28;20054;-72
2022/05/13 00:52:53;;;;;;;11.48;3.97;;;11.80;99.90;;;;;;5018502;28;20164;-72
2022/05/13 00:55:25;;;;;;;9.07;3.30;;;11.90;99.90;;;;;;5022481;28;20060;-71
2022/05/13 00:57:54;;;;;;;7.68;3.75;;;11.90;99.90;;;;;;5018630;28;20103;-71
2022/05/13 01:00:22;;;;;;;10.13;3.85;;;11.90;99.90;;;;;;5034920;28;20615;-71
2022/05/13 01:02:49;;;;;;;8.57;4.18;;;11.90;99.90;;;;;;5035930;28;20049;-71
2022/05/13 01:05:17;;;;;;;10.68;4.82;;;11.90;99.90;;;;;;5017489;28;20061;-73
2022/05/13 01:07:44;;;;;;;7.78;3.70;;;11.90;99.90;;;;;;5017789;28;20057;-72
2022/05/13 01:10:17;;;;;;;9.23;3.83;;;11.90;99.90;;;;;;5017845;28;20049;-72
2022/05/13 01:12:49;;;;;;;10.65;4.05;;;11.90;99.90;;;;;;5035463;28;20119;-71
2022/05/13 01:15:21;;;;;;;11.10;4.63;;;11.90;99.90;;;;;;5017949;28;20533;-72
2022/05/13 01:18:05;;;;;;;8.40;3.95;;;11.90;99.90;;;;;;5035740;28;20053;-72
2022/05/13 01:20:35;;;;;;;14.52;3.88;;;11.90;99.90;;;;;;5034801;28;20053;-72
2022/05/13 01:23:05;;;;;;;9.27;4.03;;;12.00;99.90;;;;;;5035364;28;20049;-71
2022/05/13 01:25:35;;;;;;;7.22;3.65;;;11.90;99.90;;;;;;5015815;28;20046;-71
2022/05/13 01:28:09;;;;;;;9.98;3.88;;;11.90;99.90;;;;;;4997239;28;20065;-71
2022/05/13 01:30:41;;;;;;;11.73;3.63;;;11.90;99.90;;;;;;5011667;28;20045;-71
2022/05/13 01:33:09;;;;;;;9.80;4.15;;;11.90;99.90;;;;;;5035574;28;20060;-71
2022/05/13 01:35:42;;;;;;;8.25;3.45;;;11.90;99.90;;;;;;5016672;28;20107;-71
2022/05/13 01:38:11;;;;;;;10.25;3.90;;;11.90;99.90;;;;;;5034950;28;20408;-71
2022/05/13 01:40:39;;;;;;;10.40;4.75;;;11.90;99.90;;;;;;5016464;28;20057;-71
2022/05/13 01:43:07;;;;;;;9.93;4.13;;;11.90;99.90;;;;;;5035071;28;20114;-71
2022/05/13 01:45:34;;;;;;;10.63;3.92;;;11.90;99.90;;;;;;5017653;28;20076;-72
2022/05/13 01:48:02;;;;;;;8.93;3.92;;;11.90;99.90;;;;;;5017103;28;20053;-71
2022/05/13 01:50:29;;;;;;;11.35;4.03;;;11.90;99.90;;;;;;5017298;28;20127;-71
2022/05/13 01:52:56;;;;;;;12.23;4.13;;;11.90;99.90;;;;;;5034764;28;20442;-72
2022/05/13 01:55:25;;;;;;;10.18;4.05;;;11.80;99.90;;;;;;5034311;28;20089;-71
2022/05/13 01:57:52;;;;;;;13.60;4.50;;;11.90;99.90;;;;;;5034541;28;20520;-70
2022/05/13 02:00:20;;;;;;;10.23;4.13;;;11.90;99.90;;;;;;5016770;28;20485;-71
2022/05/13 02:05:31;;;;;;;10.68;4.43;;;11.90;99.90;;;;;;5034181;28;20664;-70
2022/05/13 02:07:58;;;;;;;9.13;4.53;;;11.90;99.90;;;;;;5034630;28;20069;-71
2022/05/13 02:10:26;;;;;;;12.75;5.30;;;11.90;99.90;;;;;;5033823;28;20081;-71
2022/05/13 02:12:53;;;;;;;12.07;4.43;;;11.90;99.90;;;;;;5034684;28;20126;-71
2022/05/13 02:15:20;;;;;;;15.38;5.20;;;11.90;99.90;;;;;;5017014;28;20100;-72
2022/05/13 02:17:47;;;;;;;9.98;4.55;;;11.90;99.90;;;;;;5016034;28;20057;-71
2022/05/13 02:20:14;;;;;;;7.93;4.22;;;11.90;99.90;;;;;;5034002;28;20412;-72
2022/05/13 02:22:41;;;;;;;9.23;4.38;;;11.90;99.90;;;;;;5033714;28;20107;-71
2022/05/13 02:25:09;;;;;;;10.52;4.97;;;11.90;99.90;;;;;;5034361;28;20085;-71
2022/05/13 02:27:37;;;;;;;8.35;4.43;;;11.90;99.90;;;;;;5034279;28;20103;-71
2022/05/13 02:30:05;;;;;;;13.63;4.68;;;11.90;99.90;;;;;;5033686;28;20091;-72
2022/05/13 02:32:32;;;;;;;13.18;4.95;;;11.90;99.90;;;;;;5033126;28;20130;-71
2022/05/13 02:34:59;;;;;;;19.10;5.05;;;11.90;99.90;;;;;;5033913;28;20057;-72
2022/05/13 02:37:26;;;;;;;15.88;6.63;;;11.90;99.90;;;;;;5033438;28;20049;-73
2022/05/13 02:39:53;;;;;;;12.93;4.88;;;11.90;99.90;;;;;;5033748;28;20095;-71
2022/05/13 02:42:20;;;;;;;15.50;5.07;;;11.90;99.90;;;;;;5034113;28;20049;-73
2022/05/13 02:44:48;;;;;;;12.48;5.25;;;11.90;99.90;;;;;;5015882;28;20085;-72
2022/05/13 02:47:15;;;;;;;12.88;5.55;;;11.90;99.90;;;;;;5016170;28;20115;-73
2022/05/13 02:49:42;;;;;;;12.65;4.40;;;11.90;99.90;;;;;;5015995;28;20049;-72
2022/05/13 02:52:11;;;;;;;10.55;4.50;;;11.90;99.90;;;;;;5033522;28;20060;-72
2022/05/13 02:54:38;;;;;;;12.70;5.10;;;11.90;99.90;;;;;;5033255;28;20053;-72
2022/05/13 02:57:06;;;;;;;11.93;4.57;;;11.90;99.90;;;;;;5016215;28;20160;-72
2022/05/13 02:59:32;;;;;;;13.32;4.90;;;11.80;99.90;;;;;;5015431;28;20062;-71
2022/05/13 03:02:01;;;;;;;13.13;4.88;;;11.90;99.90;;;;;;5015950;28;20569;-71
2022/05/13 03:04:28;;;;;;;13.38;4.72;;;11.80;99.90;;;;;;5033793;28;20053;-71
2022/05/13 03:06:54;;;;;;;8.95;4.65;;;11.80;99.90;;;;;;5015315;28;20103;-70
2022/05/13 03:09:21;;;;;;;13.73;5.78;;;11.80;99.90;;;;;;5015301;28;20045;-72
2022/05/13 03:11:48;;;;;;;12.88;5.25;;;11.80;99.90;;;;;;5014347;28;20460;-71
2022/05/13 03:14:15;;;;;;;16.23;5.55;;;11.80;99.90;;;;;;5015268;28;20049;-71
2022/05/13 03:16:42;;;;;;;14.32;5.40;;;11.80;99.90;;;;;;5033105;28;20052;-71
2022/05/13 03:19:11;;;;;;;14.85;5.63;;;11.80;99.90;;;;;;5032589;28;20499;-72
2022/05/13 03:21:38;;;;;;;17.25;6.20;;;11.80;99.90;;;;;;5032749;28;20132;-72
2022/05/13 03:24:06;;;;;;;13.57;5.60;;;11.70;99.90;;;;;;5033615;28;20053;-70
2022/05/13 03:26:32;;;;;;;13.95;4.70;;;11.80;99.90;;;;;;5032847;28;20459;-72
2022/05/13 03:28:59;;;;;;;13.02;4.68;;;11.80;99.90;;;;;;5015374;28;20107;-71
2022/05/13 03:31:26;;;;;;;15.85;5.47;;;11.80;99.90;;;;;;5033568;28;20049;-72
2022/05/13 03:33:53;;;;;;;15.85;5.05;;;11.80;99.90;;;;;;5032533;28;20523;-71
2022/05/13 03:36:21;;;;;;;14.95;4.97;;;11.80;99.90;;;;;;5015286;28;20163;-71
2022/05/13 03:38:48;;;;;;;18.50;4.85;;;11.80;99.90;;;;;;5015269;28;20501;-71
2022/05/13 03:41:15;;;;;;;15.27;5.25;;;11.80;99.90;;;;;;5032383;28;20046;-72
2022/05/13 03:43:41;;;;;;;11.80;4.85;;;11.80;99.90;;;;;;5032745;28;20049;-71
2022/05/13 03:46:08;;;;;;;9.35;4.75;;;11.80;99.90;;;;;;5033312;28;20095;-72
2022/05/13 03:48:35;;;;;;;13.27;5.05;;;11.80;99.90;;;;;;5031643;28;20457;-71
2022/05/13 03:51:02;;;;;;;15.70;6.00;;;11.80;99.90;;;;;;5015438;28;20420;-71
2022/05/13 03:53:31;;;;;;;12.35;4.88;;;11.80;99.90;;;;;;5014999;28;20085;-69
2022/05/13 03:55:58;;;;;;;18.25;4.78;;;11.80;99.90;;;;;;5014630;28;20057;-72
2022/05/13 03:58:24;;;;;;;16.45;6.05;;;11.80;99.90;;;;;;5015174;28;20145;-71
2022/05/13 04:00:51;;;;;;;16.05;5.25;;;11.80;99.90;;;;;;5014873;28;20130;-71
2022/05/13 04:03:19;;;;;;;15.05;5.25;;;11.90;99.90;;;;;;5014092;28;20497;-71
2022/05/13 04:11:13;;;;;;;17.27;5.78;;;11.90;99.90;;;;;;5019520;28;20393;-71
2022/05/13 04:16:25;;;;;;;12.57;5.20;;;11.90;99.90;;;;;;5014867;28;20055;-71
2022/05/13 04:18:53;;;;;;;13.75;6.43;;;12.00;99.90;;;;;;5032555;28;20061;-71
2022/05/13 04:21:21;;;;;;;14.98;4.78;;;12.00;99.90;;;;;;5032953;28;20080;-72
2022/05/13 04:23:51;;;;;;;16.73;5.35;;;12.00;99.90;;;;;;5032205;28;20464;-71
2022/05/13 04:26:18;;;;;;;17.50;5.38;;;12.00;99.90;;;;;;5015501;28;20107;-72
2022/05/13 04:28:48;;;;;;;10.50;4.78;;;12.10;99.90;;;;;;5014859;28;20567;-72
2022/05/13 04:31:17;;;;;;;14.70;5.10;;;12.00;99.90;;;;;;5031921;28;20049;-71
2022/05/13 04:33:44;;;;;;;23.73;6.30;;;12.10;99.90;;;;;;5032336;28;20049;-72
2022/05/13 04:36:11;;;;;;;17.58;4.85;;;12.10;99.90;;;;;;5032346;28;20049;-71
2022/05/13 04:38:38;;;;;;;25.70;5.18;;;12.10;99.90;;;;;;5014985;28;20054;-71
2022/05/13 04:43:53;;;;;;;22.83;5.55;;;12.10;99.90;;;;;;5040407;28;20049;-73
2022/05/13 04:46:19;;;;;;;15.65;4.47;;;12.10;99.90;;;;;;5035381;28;20515;-72
2022/05/13 04:48:47;;;;;;;18.60;5.00;;;12.20;99.90;;;;;;5015667;28;20057;-71
2022/05/13 04:51:14;;;;;;;14.15;5.15;;;12.20;99.90;;;;;;5015707;28;20058;-71
2022/05/13 04:53:41;;;;;;;20.73;4.55;;;12.20;99.90;;;;;;5015786;28;20057;-71
2022/05/13 04:56:10;;;;;;;19.85;4.88;;;12.20;99.90;;;;;;5035645;28;20049;-71
2022/05/13 04:58:39;;;;;;;13.15;4.72;;;12.30;99.90;;;;;;5018852;28;20111;-74
2022/05/13 05:01:07;;;;;;;12.95;4.60;;;12.30;99.90;;;;;;5018498;28;20049;-72
2022/05/13 05:03:36;;;;;;;16.42;5.18;;;12.30;99.90;;;;;;5017700;28;20046;-71
2022/05/13 05:06:04;;;;;;;16.17;5.00;;;12.30;99.90;;;;;;5035149;28;20389;-73
2022/05/13 05:08:32;;;;;;;17.08;5.28;;;12.40;99.90;;;;;;5035964;28;20049;-72
2022/05/13 05:10:59;;;;;;;15.10;5.03;;;12.50;99.90;;;;;;5035673;28;20057;-72
2022/05/13 05:13:30;;;;;;;18.35;4.50;;;12.50;99.90;;;;;;5017033;28;20088;-73
2022/05/13 05:15:57;;;;;;;12.13;3.13;;;12.60;99.90;;;;;;5018039;28;20065;-74
2022/05/13 05:18:25;;;;;;;12.80;3.97;;;12.70;99.90;;;;;;5034801;28;20493;-73
2022/05/13 05:20:52;;;;;;;15.68;4.07;;;12.80;99.90;;;;;;5017170;28;20085;-73
2022/05/13 05:23:21;;;;;;;9.57;4.43;;;12.80;99.90;;;;;;5018000;28;20049;-73
2022/05/13 05:25:48;;;;;;;11.95;3.38;;;12.90;99.90;;;;;;5017280;28;20089;-73
2022/05/13 05:28:16;;;;;;;12.68;3.80;;;12.90;99.90;;;;;;5034706;28;20060;-73
2022/05/13 05:30:45;;;;;;;13.18;3.63;;;13.00;99.90;;;;;;5035258;28;20053;-71
2022/05/13 05:33:12;;;;;;;9.93;3.55;;;13.00;99.90;;;;;;5034616;28;20053;-71
2022/05/13 05:35:39;;;;;;;8.55;3.72;;;13.10;99.90;;;;;;5016904;28;20058;-72
2022/05/13 05:38:07;;;;;;;12.50;3.17;;;13.20;99.90;;;;;;5035312;28;20119;-70
2022/05/13 05:40:35;;;;;;;10.73;3.65;;;13.30;99.90;;;;;;5016272;28;20085;-72
2022/05/13 05:43:05;;;;;;;12.43;3.17;;;13.40;99.90;;;;;;5034955;28;20504;-72
2022/05/13 05:45:31;;;;;;;13.35;3.30;;;13.40;99.90;;;;;;5035157;28;20129;-72
2022/05/13 05:48:00;;;;;;;7.60;2.83;;;13.50;99.90;;;;;;5016656;28;20060;-72
2022/05/13 05:50:27;;;;;;;9.55;3.20;;;13.50;99.90;;;;;;5035006;28;20111;-72
2022/05/13 05:52:54;;;;;;;8.68;2.90;;;13.50;99.90;;;;;;5035123;28;20045;-72
2022/05/13 05:58:08;;;;;;;4.47;2.15;;;13.50;99.90;;;;;;5017357;28;20057;-71
2022/05/13 06:00:39;;;;;;;11.67;3.63;;;13.50;99.90;;;;;;5034284;28;20508;-72
2022/05/13 06:03:07;;;;;;;;;;;13.60;99.90;;;;;;5017013;28;20088;-71
2022/05/13 06:05:34;;;;;;;9.77;2.50;;;13.50;99.90;;;;;;5015059;28;20787;-71
2022/05/13 06:08:02;;;;;;;9.15;2.88;;;13.60;99.90;;;;;;5020640;28;20054;-71
2022/05/13 06:10:31;;;;;;;11.63;3.20;;;13.60;99.90;;;;;;5011143;28;20052;-71
2022/05/13 06:12:58;;;;;;;10.70;2.92;;;13.60;99.90;;;;;;5026290;28;20063;-71
2022/05/13 06:15:25;;;;;;;7.65;2.38;;;13.60;99.90;;;;;;5030668;28;20053;-70
2022/05/13 06:17:54;;;;;;;5.47;2.17;;;13.70;99.90;;;;;;5025119;28;20494;-71
2022/05/13 06:20:24;;;;;;;6.80;2.33;;;13.80;99.90;;;;;;5022737;28;20046;-72
2022/05/13 06:22:51;;;;;;;6.20;2.97;;;13.80;99.90;;;;;;5009565;28;20045;-71
2022/05/13 06:25:20;;;;;;;11.10;2.60;;;13.80;99.90;;;;;;5025035;28;20045;-71
2022/05/13 06:27:48;;;;;;;7.35;2.47;;;13.90;99.90;;;;;;5009778;28;20049;-72
2022/05/13 06:30:17;;;;;;;8.13;2.40;;;13.80;99.90;;;;;;5028160;28;20096;-73
2022/05/13 06:32:44;;;;;;;6.85;2.75;;;13.90;99.90;;;;;;5028829;28;20085;-72
2022/05/13 06:35:12;;;;;;;11.30;2.72;;;14.00;99.90;;;;;;5030160;28;20450;-71
2022/05/13 06:37:40;;;;;;;10.73;2.83;;;14.10;99.90;;;;;;5024433;28;20041;-71
2022/05/13 06:40:08;;;;;;;10.82;2.67;;;14.10;99.90;;;;;;5010816;28;20100;-72
2022/05/13 06:42:35;;;;;;;9.55;2.63;;;14.10;99.90;;;;;;5026625;28;20045;-72
2022/05/13 06:45:02;;;;;;;13.10;2.70;;;14.10;99.90;;;;;;5013950;28;20119;-72
2022/05/13 06:47:29;;;;;;;10.80;2.85;;;14.20;99.90;;;;;;5008625;28;20057;-72
2022/05/13 06:49:55;;;;;;;6.90;2.55;;;14.30;99.90;;;;;;5024736;28;20571;-71
2022/05/13 06:52:22;;;;;;;8.85;2.83;;;14.60;99.90;;;;;;5011938;28;20087;-72
2022/05/13 06:54:50;;;;;;;8.55;2.65;;;14.70;99.90;;;;;;5006943;28;20111;-72
2022/05/13 06:57:17;;;;;;;10.27;2.40;;;14.80;99.90;;;;;;5025738;28;20049;-72
2022/05/13 06:59:45;;;;;;;9.18;2.40;;;15.00;99.90;;;;;;5006913;28;20057;-71
2022/05/13 07:02:11;;;;;;;11.82;2.83;;;15.20;99.90;;;;;;5029683;28;20041;-72
2022/05/13 07:04:38;;;;;;;7.53;2.90;;;15.30;99.90;;;;;;5026536;28;20042;-72
2022/05/13 07:07:05;;;;;;;10.25;3.10;;;15.40;99.90;;;;;;5027564;28;20041;-72
2022/05/13 07:09:34;;;;;;;6.55;2.42;;;15.40;99.90;;;;;;5015854;28;20112;-71
2022/05/13 07:12:02;;;;;;;10.65;2.60;;;15.30;99.90;;;;;;5009987;28;20128;-71
2022/05/13 07:14:29;;;;;;;10.05;2.30;;;15.30;99.90;;;;;;5008733;28;20045;-71
2022/05/13 07:16:56;;;;;;;9.73;2.50;;;15.30;99.90;;;;;;5023053;28;20502;-71
2022/05/13 07:19:23;;;;;;;11.05;2.88;;;15.50;99.90;;;;;;5024789;28;20111;-71
2022/05/13 07:21:50;;;;;;;8.30;2.42;;;16.10;99.90;;;;;;5029984;28;20553;-72
2022/05/13 07:24:17;;;;;;;11.35;2.53;;;17.20;99.90;;;;;;5025304;28;20046;-71
2022/05/13 07:26:44;;;;;;;8.07;2.10;;;17.70;99.90;;;;;;5016548;28;20425;-72
2022/05/13 07:29:12;;;;;;;9.50;2.28;;;17.60;99.90;;;;;;5011379;28;20050;-72
2022/05/13 07:31:40;;;;;;;6.70;1.80;;;18.20;99.90;;;;;;4988527;28;20108;-72
2022/05/13 07:34:07;;;;;;;6.68;1.80;;;18.70;99.90;;;;;;5003638;28;20046;-72
2022/05/13 07:36:35;;;;;;;5.00;1.90;;;19.20;99.90;;;;;;4991098;28;20397;-72
2022/05/13 07:41:47;;;;;;;8.05;2.58;;;19.50;99.90;;;;;;4987469;28;20038;-71
2022/05/13 07:44:16;;;;;;;8.30;2.35;;;18.90;99.90;;;;;;4988428;28;20082;-72
2022/05/13 07:46:44;;;;;;;8.02;2.42;;;18.30;99.90;;;;;;5005155;28;20108;-72
2022/05/13 07:49:11;;;;;;;5.50;1.75;;;17.90;99.90;;;;;;5006404;28;20108;-75
2022/05/13 07:51:38;;;;;;;10.18;2.15;;;17.90;99.90;;;;;;5004565;28;20104;-73
2022/05/13 07:54:06;;;;;;;8.07;2.03;;;18.30;99.90;;;;;;4983178;28;20119;-73
2022/05/13 07:56:33;;;;;;;5.35;1.70;;;18.60;99.90;;;;;;4988231;28;20100;-73
2022/05/13 07:59:13;;;;;;;4.88;1.70;;;18.20;99.90;;;;;;5011628;28;20074;-72
2022/05/13 08:01:45;;;;;;;11.15;2.05;;;17.90;99.90;;;;;;4988399;28;20049;-73
2022/05/13 08:04:22;;;;;;;5.22;1.70;;;17.60;99.90;;;;;;5008269;28;20062;-73
2022/05/13 08:06:52;;;;;;;7.72;2.20;;;17.50;99.90;;;;;;4995769;28;20050;-73
2022/05/13 08:09:19;;;;;;;6.68;2.08;;;16.90;99.90;;;;;;4990152;28;20045;-73
2022/05/13 08:11:47;;;;;;;9.02;2.10;;;16.60;99.90;;;;;;4991951;28;20068;-73
2022/05/13 08:14:14;;;;;;;6.75;1.92;;;16.60;99.90;;;;;;5007123;28;20046;-72
2022/05/13 08:16:41;;;;;;;5.60;1.75;;;16.30;99.90;;;;;;4987079;28;20050;-73
2022/05/13 08:19:10;;;;;;;6.03;1.85;;;16.20;99.90;;;;;;5003007;28;20058;-73
2022/05/13 08:21:37;;;;;;;6.95;2.03;;;16.00;99.90;;;;;;4989515;28;20448;-71
2022/05/13 08:24:06;;;;;;;7.97;1.95;;;16.00;99.90;;;;;;4987700;28;20054;-72
2022/05/13 08:26:33;;;;;;;5.82;1.65;;;16.10;99.90;;;;;;5006653;28;20045;-73
2022/05/13 08:29:00;;;;;;;5.78;2.10;;;16.40;99.90;;;;;;5005881;28;20057;-73
2022/05/13 08:31:27;;;;;;;7.63;2.50;;;16.60;99.90;;;;;;5008203;28;20050;-71
2022/05/13 08:33:54;;;;;;;5.68;2.30;;;16.80;99.90;;;;;;5031261;28;20053;-73
2022/05/13 08:36:22;;;;;;;6.78;1.88;;;16.50;99.90;;;;;;5029221;28;20056;-72
2022/05/13 08:38:50;;;;;;;7.78;2.40;;;16.50;99.90;;;;;;5007816;28;20049;-71
2022/05/13 08:41:26;;;;;;;5.40;1.83;;;16.70;99.90;;;;;;5026723;28;20049;-72
2022/05/13 08:43:56;;;;;;;8.10;2.80;;;16.80;99.90;;;;;;5011354;28;20052;-72
2022/05/13 08:46:32;;;;;;;;;;;16.80;99.90;;;;;;5029332;28;20073;-72
2022/05/13 08:49:06;;;;;;;4.93;1.90;;;16.60;99.90;;;;;;5011766;28;19929;-72
2022/05/13 08:51:44;;;;;;;5.28;1.75;;;16.40;99.90;;;;;;5025653;28;20049;-72
2022/05/13 08:54:14;;;;;;;5.45;2.15;;;16.30;99.90;;;;;;5009866;28;20389;-71
2022/05/13 08:56:45;;;;;;;5.77;1.77;;;16.10;99.90;;;;;;5009975;28;20108;-72
2022/05/13 08:59:16;;;;;;;6.53;2.08;;;16.10;99.90;;;;;;5014067;28;20128;-73
2022/05/13 09:01:47;;;;;;;8.68;1.83;;;16.80;99.90;;;;;;5012941;28;20108;-74
2022/05/13 09:04:22;;;;;;;5.97;2.30;;;18.10;99.90;;;;;;5031105;28;20045;-72
2022/05/13 09:06:54;;;;;;;6.45;1.83;;;18.70;99.90;;;;;;5015226;28;20053;-74
2022/05/13 09:09:21;;;;;;;4.35;1.88;;;18.80;99.90;;;;;;5009312;28;20053;-74
2022/05/13 09:11:54;;;;;;;8.95;1.70;;;18.60;99.90;;;;;;5008892;28;20111;-73
2022/05/13 09:14:35;;;;;;;8.32;1.73;;;18.10;99.90;;;;;;5029149;28;20085;-71
2022/05/13 09:17:23;;;;;;;7.97;2.08;;;17.90;99.90;;;;;;5008260;28;20087;-73
2022/05/13 09:19:58;;;;;;;6.15;1.65;;;18.00;99.90;;;;;;5028007;28;20050;-74
2022/05/13 09:22:33;;;;;;;4.35;1.70;;;18.00;99.90;;;;;;5009487;28;20042;-73
2022/05/13 09:25:00;;;;;;;6.95;1.98;;;17.90;99.90;;;;;;5009325;28;20058;-73
2022/05/13 09:27:26;;;;;;;4.95;1.88;;;17.60;99.90;;;;;;5013951;28;20061;-72
2022/05/13 09:29:53;;;;;;;6.07;2.03;;;17.40;99.90;;;;;;5010631;28;20049;-73
2022/05/13 09:32:26;;;;;;;8.35;2.03;;;18.10;99.90;;;;;;4988207;28;20490;-72
2022/05/13 09:35:05;;;;;;;5.38;1.30;;;18.40;99.90;;;;;;4990067;28;20045;-75
2022/05/13 09:37:38;;;;;;;7.38;1.95;;;18.10;99.60;;;;;;4991481;28;20060;-75
2022/05/13 09:40:10;;;;;;;5.65;1.85;;;17.80;99.90;;;;;;5009783;28;20050;-75
2022/05/13 09:42:39;;;;;;;4.32;1.88;;;17.70;99.90;;;;;;4989574;28;20442;-73
2022/05/13 09:45:25;;;;;;;5.40;1.63;;;17.50;99.90;;;;;;4989736;28;20161;-73
2022/05/13 09:48:11;;;;;;;4.15;1.75;;;17.40;99.90;;;;;;4990437;28;20077;-72
2022/05/13 09:50:42;;;;;;;3.40;1.30;;;17.30;99.90;;;;;;4989868;28;20104;-73
2022/05/13 09:53:28;;;;;;;6.40;1.42;;;17.30;99.90;;;;;;5011112;28;20137;-73
2022/05/13 09:55:57;;;;;;;7.93;1.83;;;17.30;99.90;;;;;;4989239;28;20128;-73
2022/05/13 09:58:27;;;;;;;7.93;1.63;;;17.20;99.90;;;;;;5000349;28;20046;-73
2022/05/13 10:00:58;;;;;;;4.88;1.60;;;17.00;99.90;;;;;;4991012;28;20046;-72
2022/05/13 10:03:27;;;;;;;6.18;1.90;;;17.10;99.90;;;;;;4976355;28;20046;-71
2022/05/13 10:06:03;;;;;;;17.95;2.05;;;17.50;99.90;;;;;;4998792;28;20189;-72
2022/05/13 10:08:32;;;;;;;6.13;2.20;;;17.90;99.90;;;;;;5000907;28;20550;-71
2022/05/13 10:13:59;;;;;;;5.93;1.75;;;18.10;99.90;;;;;;4989991;28;20466;-72
2022/05/13 10:16:32;;;;;;;6.53;1.65;;;19.00;99.90;;;;;;4992760;28;20050;-74
2022/05/13 10:19:06;;;;;;;12.68;2.00;;;20.00;98.30;;;;;;4992618;28;20058;-72
2022/05/13 10:21:38;;;;;;;5.10;1.70;;;20.80;97.90;;;;;;4975863;28;20113;-73
2022/05/13 10:24:18;;;;;;;10.05;2.40;;;21.70;96.80;;;;;;4977377;28;20078;-72
2022/05/13 10:26:46;;;;;;;;;;;22.20;94.60;;;;;;4993055;28;20105;-73
2022/05/13 10:29:17;;;;;;;9.38;2.47;;;21.60;93.90;;;;;;4998777;28;20381;-73
2022/05/13 10:31:46;;;;;;;6.25;2.40;;;21.20;95.20;;;;;;5011261;28;20049;-72
2022/05/13 10:34:23;;;;;;;7.35;2.05;;;20.50;95.40;;;;;;5011537;28;20567;-72
2022/05/13 10:36:58;;;;;;;9.00;2.00;;;20.80;94.30;;;;;;5009183;28;20131;-74
2022/05/13 10:39:34;;;;;;;6.90;1.67;;;21.60;95.30;;;;;;5011991;28;20050;-73
2022/05/13 10:42:05;;;;;;;7.60;2.33;;;22.00;94.40;;;;;;5012369;28;20103;-73
2022/05/13 10:44:39;;;;;;;4.68;1.83;;;21.40;93.90;;;;;;5012138;28;20046;-72
2022/05/13 10:47:16;;;;;;;7.10;2.22;;;20.80;93.30;;;;;;5013856;28;20046;-73
2022/05/13 10:49:44;;;;;;;7.28;1.90;;;20.40;93.40;;;;;;5009201;28;20101;-74
2022/05/13 10:52:21;;;;;;;5.22;2.00;;;20.20;94.20;;;;;;5011713;28;20081;-74
2022/05/13 10:54:54;;;;;;;9.30;2.00;;;19.60;94.10;;;;;;5011424;28;20104;-73
2022/05/13 10:57:40;;;;;;;4.40;1.80;;;19.00;95.10;;;;;;5010526;28;20049;-74
2022/05/13 11:00:14;;;;;;;5.82;1.70;;;19.30;95.40;;;;;;5008039;28;20057;-73
2022/05/13 11:03:19;;;;;;;5.22;1.52;;;19.70;94.50;;;;;;5008254;28;20080;-74
2022/05/13 11:06:01;;;;;;;7.18;1.60;;;19.60;94.20;;;;;;5008612;28;20100;-73
2022/05/13 11:08:36;;;;;;;4.70;1.50;;;19.60;94.60;;;;;;5010678;28;20049;-72
2022/05/13 11:11:17;;;;;;;6.50;1.63;;;19.20;94.70;;;;;;5011358;28;20049;-72
2022/05/13 11:13:56;;;;;;;5.85;2.35;;;18.90;95.50;;;;;;5011451;28;20085;-73
2022/05/13 11:16:39;;;;;;;4.83;1.93;;;18.50;95.80;;;;;;5007608;28;20053;-72
2022/05/13 11:19:13;;;;;;;9.52;2.53;;;18.30;96.20;;;;;;5009286;28;20046;-74
2022/05/13 11:21:47;;;;;;;6.30;1.60;;;18.00;96.90;;;;;;5013254;28;20461;-74
2022/05/13 11:27:19;;;;;;;9.23;2.50;;;17.70;97.50;;;;;;5020150;28;20551;-72
2022/05/13 11:29:53;;;;;;;5.28;2.20;;;17.50;97.40;;;;;;5014941;28;20115;-73
2022/05/13 11:32:27;;;;;;;4.40;2.00;;;17.40;97.90;;;;;;5015053;28;20119;-74
2022/05/13 11:35:30;;;;;;;6.13;1.95;;;17.40;98.30;;;;;;5015786;28;20089;-73
2022/05/13 11:38:04;;;;;;;5.65;2.20;;;17.40;98.70;;;;;;5012266;28;20049;-72
2022/05/13 11:40:41;;;;;;;7.07;2.22;;;17.30;99.00;;;;;;5014382;28;20081;-73
2022/05/13 11:43:20;;;;;;;5.38;2.13;;;17.50;99.10;;;;;;5015374;28;20041;-73
2022/05/13 11:46:08;;;;;;;8.00;2.90;;;17.80;99.20;;;;;;5032494;28;20053;-74
2022/05/13 11:48:37;;;;;;;6.20;2.05;;;18.20;98.90;;;;;;5015510;28;20057;-74
2022/05/13 11:51:06;;;;;;;7.35;1.90;;;19.00;98.20;;;;;;5015196;28;20085;-73
2022/05/13 11:53:52;;;;;;;7.10;2.17;;;19.40;97.90;;;;;;5014513;28;20107;-73
2022/05/13 11:56:35;;;;;;;6.03;2.10;;;19.60;95.70;;;;;;5033257;28;20472;-73
2022/05/13 11:59:09;;;;;;;5.80;1.92;;;19.60;95.80;;;;;;5030697;28;20053;-73
2022/05/13 12:02:07;;;;;;;5.25;1.85;;;19.40;95.60;;;;;;5032471;28;20413;-73
2022/05/13 12:04:37;;;;;;;6.55;1.95;;;19.10;95.70;;;;;;5034639;28;20562;-73
2022/05/13 12:07:27;;;;;;;5.72;1.75;;;19.00;96.20;;;;;;5019061;28;20115;-74
2022/05/13 12:09:55;;;;;;;8.98;2.28;;;19.00;96.20;;;;;;5037270;28;20111;-73
2022/05/13 12:12:43;;;;;;;7.93;1.98;;;19.30;96.60;;;;;;5037500;28;20049;-72
2022/05/13 12:15:23;;;;;;;7.13;2.00;;;19.10;96.00;;;;;;5018519;28;20049;-73
2022/05/13 12:17:59;;;;;;;7.53;1.95;;;18.80;96.60;;;;;;5019971;28;20100;-73
2022/05/13 12:20:37;;;;;;;7.68;1.98;;;18.50;96.80;;;;;;5037220;28;20057;-74
2022/05/13 12:23:09;;;;;;;5.18;1.95;;;18.30;97.40;;;;;;5036985;28;20440;-74
2022/05/13 12:25:54;;;;;;;6.53;2.33;;;18.90;97.20;;;;;;5037157;28;20127;-74
2022/05/13 12:28:31;;;;;;;4.82;2.05;;;19.80;96.70;;;;;;5018451;28;20049;-75
2022/05/13 12:30:59;;;;;;;5.43;2.22;;;19.70;96.30;;;;;;5019088;28;20045;-74
2022/05/13 12:33:38;;;;;;;10.52;1.98;;;19.50;96.20;;;;;;5036345;28;20512;-73
2022/05/13 12:39:12;;;;;;;12.30;1.80;;;19.10;95.30;;;;;;5036290;28;20041;-74
2022/05/13 12:41:52;;;;;;;6.85;2.13;;;19.30;95.20;;;;;;5036445;28;20049;-74
2022/05/13 12:44:26;;;;;;;4.25;1.77;;;19.90;95.20;;;;;;5018585;28;20057;-74
2022/05/13 12:47:22;;;;;;;10.73;2.25;;;20.20;93.90;;;;;;5036475;28;20497;-73
2022/05/13 12:49:55;;;;;;;6.05;1.70;;;21.00;92.90;;;;;;5017743;28;20053;-75
2022/05/13 12:52:33;;;;;;;6.97;2.00;;;21.10;92.90;;;;;;5036489;28;20060;-73
2022/05/13 12:55:04;;;;;;;5.13;1.58;;;20.60;91.80;;;;;;5036133;28;20123;-74
2022/05/13 12:57:34;;;;;;;7.85;1.90;;;20.30;91.70;;;;;;5017901;28;20063;-74
2022/05/13 13:00:04;;;;;;;7.95;2.17;;;20.00;92.60;;;;;;5036053;28;20123;-72
2022/05/13 13:02:34;;;;;;;7.00;2.17;;;19.60;93.30;;;;;;5018629;28;20084;-73
2022/05/13 13:05:06;;;;;;;7.22;1.70;;;19.80;93.70;;;;;;5034913;28;20085;-74
2022/05/13 13:07:36;;;;;;;5.28;2.35;;;19.90;93.40;;;;;;5036079;28;20524;-75
2022/05/13 13:10:05;;;;;;;4.22;1.75;;;19.90;93.00;;;;;;5017586;28;20139;-73
2022/05/13 13:12:36;;;;;;;7.20;2.00;;;20.00;93.40;;;;;;5018177;28;20053;-74
2022/05/13 13:15:07;;;;;;;6.82;1.77;;;20.60;93.50;;;;;;5035843;28;20104;-73
2022/05/13 13:17:40;;;;;;;6.35;1.77;;;21.40;92.50;;;;;;5016691;28;20107;-74
2022/05/13 13:20:10;;;;;;;5.75;1.55;;;21.70;91.40;;;;;;5018126;28;20049;-74
2022/05/13 13:22:42;;;;;;;5.22;1.33;;;21.80;91.20;;;;;;5018274;28;20057;-73
2022/05/13 13:25:21;;;;;;;6.88;1.50;;;21.90;90.10;;;;;;5016972;28;20080;-73
2022/05/13 13:27:48;;;;;;;5.00;1.80;;;21.90;90.00;;;;;;5035806;28;20057;-74